sensor_id;sensor_type;location;lat;lon;timestamp;temperature;humidity
16515;DHT22;8370;52.556;7.970;2024-01-06T00:00:30;6.70;99.90
16515;DHT22;8370;52.556;7.970;2024-01-06T00:02:55;6.60;99.90
16515;DHT22;8370;52.556;7.970;2024-01-06T00:05:21;6.60;99.90
16515;DHT22;8370;52.556;7.970;2024-01-06T00:07:46;6.50;99.90
16515;DHT22;8370;52.556;7.970;2024-01-06T00:10:12;6.60;99.90
16515;DHT22;8370;52.556;7.970;2024-01-06T00:12:38;6.60;99.90
16515;DHT22;8370;52.556;7.970;2024-01-06T00:15:04;6.60;99.90
16515;DHT22;8370;52.556;7.970;2024-01-06T00:17:29;6.50;99.90
16515;DHT22;8370;52.556;7.970;2024-01-06T00:19:55;6.50;99.90
16515;DHT22;8370;52.556;7.970;2024-01-06T00:22:20;6.50;99.90
16515;DHT22;8370;52.556;7.970;2024-01-06T00:24:46;6.50;99.90
16515;DHT22;8370;52.556;7.970;2024-01-06T00:27:12;6.50;99.90
16515;DHT22;8370;52.556;7.970;2024-01-06T00:29:39;6.50;99.90
16515;DHT22;8370;52.556;7.970;2024-01-06T00:32:05;6.50;99.90
16515;DHT22;8370;52.556;7.970;2024-01-06T00:34:30;6.50;99.90
16515;DHT22;8370;52.556;7.970;2024-01-06T00:36:56;6.40;99.90
16515;DHT22;8370;52.556;7.970;2024-01-06T00:39:21;6.40;99.90
16515;DHT22;8370;52.556;7.970;2024-01-06T00:41:47;6.40;99.90
16515;DHT22;8370;52.556;7.970;2024-01-06T00:44:12;6.40;99.90
16515;DHT22;8370;52.556;7.970;2024-01-06T00:46:39;6.30;99.90
16515;DHT22;8370;52.556;7.970;2024-01-06T00:49:04;6.30;99.90
16515;DHT22;8370;52.556;7.970;2024-01-06T00:51:30;6.40;99.90
16515;DHT22;8370;52.556;7.970;2024-01-06T00:53:55;6.50;99.90
16515;DHT22;8370;52.556;7.970;2024-01-06T00:56:22;6.40;99.90
16515;DHT22;8370;52.556;7.970;2024-01-06T00:58:47;6.30;99.90
16515;DHT22;8370;52.556;7.970;2024-01-06T01:01:13;6.10;99.90
16515;DHT22;8370;52.556;7.970;2024-01-06T01:03:38;5.90;99.90
16515;DHT22;8370;52.556;7.970;2024-01-06T01:06:04;5.90;99.90
16515;DHT22;8370;52.556;7.970;2024-01-06T01:08:29;5.80;99.90
16515;DHT22;8370;52.556;7.970;2024-01-06T01:10:56;5.70;99.90
16515;DHT22;8370;52.556;7.970;2024-01-06T01:13:22;5.60;99.90
16515;DHT22;8370;52.556;7.970;2024-01-06T01:15:48;5.50;99.90
16515;DHT22;8370;52.556;7.970;2024-01-06T01:18:13;5.50;99.90
16515;DHT22;8370;52.556;7.970;2024-01-06T01:20:39;5.50;99.90
16515;DHT22;8370;52.556;7.970;2024-01-06T01:23:07;5.40;99.90
16515;DHT22;8370;52.556;7.970;2024-01-06T01:25:32;5.40;99.90
16515;DHT22;8370;52.556;7.970;2024-01-06T01:27:58;5.30;99.90
16515;DHT22;8370;52.556;7.970;2024-01-06T01:30:23;5.30;99.90
16515;DHT22;8370;52.556;7.970;2024-01-06T01:32:49;5.20;99.90
16515;DHT22;8370;52.556;7.970;2024-01-06T01:35:14;5.20;99.90
16515;DHT22;8370;52.556;7.970;2024-01-06T01:37:40;5.20;99.90
16515;DHT22;8370;52.556;7.970;2024-01-06T01:40:06;5.10;99.90
16515;DHT22;8370;52.556;7.970;2024-01-06T01:42:33;5.10;99.90
16515;DHT22;8370;52.556;7.970;2024-01-06T01:44:58;5.00;99.90
16515;DHT22;8370;52.556;7.970;2024-01-06T01:47:24;4.90;99.90
16515;DHT22;8370;52.556;7.970;2024-01-06T01:49:49;5.00;99.90
16515;DHT22;8370;52.556;7.970;2024-01-06T01:52:16;4.90;99.90
16515;DHT22;8370;52.556;7.970;2024-01-06T01:54:42;4.90;99.90
16515;DHT22;8370;52.556;7.970;2024-01-06T01:57:09;4.80;99.90
16515;DHT22;8370;52.556;7.970;2024-01-06T01:59:36;4.80;99.90
16515;DHT22;8370;52.556;7.970;2024-01-06T02:02:02;4.80;99.90
16515;DHT22;8370;52.556;7.970;2024-01-06T02:04:27;4.70;99.90
16515;DHT22;8370;52.556;7.970;2024-01-06T02:06:54;4.70;99.90
16515;DHT22;8370;52.556;7.970;2024-01-06T02:09:20;4.70;99.90
16515;DHT22;8370;52.556;7.970;2024-01-06T02:11:48;4.60;99.90
16515;DHT22;8370;52.556;7.970;2024-01-06T02:14:13;4.70;99.90
16515;DHT22;8370;52.556;7.970;2024-01-06T02:16:39;4.70;99.90
16515;DHT22;8370;52.556;7.970;2024-01-06T02:19:05;4.70;99.90
16515;DHT22;8370;52.556;7.970;2024-01-06T02:21:34;4.70;99.90
16515;DHT22;8370;52.556;7.970;2024-01-06T02:24:01;4.70;99.90
16515;DHT22;8370;52.556;7.970;2024-01-06T02:26:26;4.70;99.90
16515;DHT22;8370;52.556;7.970;2024-01-06T02:28:52;4.70;99.90
16515;DHT22;8370;52.556;7.970;2024-01-06T02:31:17;4.60;99.90
16515;DHT22;8370;52.556;7.970;2024-01-06T02:33:43;4.60;99.90
16515;DHT22;8370;52.556;7.970;2024-01-06T02:36:08;4.70;99.90
16515;DHT22;8370;52.556;7.970;2024-01-06T02:38:34;4.60;99.90
16515;DHT22;8370;52.556;7.970;2024-01-06T02:40:59;4.60;99.90
16515;DHT22;8370;52.556;7.970;2024-01-06T02:43:25;4.60;99.90
16515;DHT22;8370;52.556;7.970;2024-01-06T02:45:50;4.60;99.90
16515;DHT22;8370;52.556;7.970;2024-01-06T02:48:16;4.50;99.90
16515;DHT22;8370;52.556;7.970;2024-01-06T02:50:41;4.50;99.90
16515;DHT22;8370;52.556;7.970;2024-01-06T02:53:07;4.40;99.90
16515;DHT22;8370;52.556;7.970;2024-01-06T02:55:32;4.40;99.90
16515;DHT22;8370;52.556;7.970;2024-01-06T02:57:58;4.40;99.90
16515;DHT22;8370;52.556;7.970;2024-01-06T03:00:23;4.40;99.90
16515;DHT22;8370;52.556;7.970;2024-01-06T03:02:49;4.30;99.90
16515;DHT22;8370;52.556;7.970;2024-01-06T03:05:14;4.30;99.90
16515;DHT22;8370;52.556;7.970;2024-01-06T03:07:40;4.40;99.90
16515;DHT22;8370;52.556;7.970;2024-01-06T03:10:05;4.40;99.90
16515;DHT22;8370;52.556;7.970;2024-01-06T03:12:31;4.40;99.90
16515;DHT22;8370;52.556;7.970;2024-01-06T03:14:56;4.30;99.90
16515;DHT22;8370;52.556;7.970;2024-01-06T03:17:22;4.40;99.90
16515;DHT22;8370;52.556;7.970;2024-01-06T03:19:47;4.30;99.90
16515;DHT22;8370;52.556;7.970;2024-01-06T03:22:13;4.30;99.90
16515;DHT22;8370;52.556;7.970;2024-01-06T03:24:40;4.20;99.90
16515;DHT22;8370;52.556;7.970;2024-01-06T03:27:05;4.30;99.90
16515;DHT22;8370;52.556;7.970;2024-01-06T03:29:31;4.30;99.90
16515;DHT22;8370;52.556;7.970;2024-01-06T03:31:56;4.20;99.90
16515;DHT22;8370;52.556;7.970;2024-01-06T03:34:22;4.20;99.90
16515;DHT22;8370;52.556;7.970;2024-01-06T03:36:48;4.20;99.90
16515;DHT22;8370;52.556;7.970;2024-01-06T03:39:14;4.20;99.90
16515;DHT22;8370;52.556;7.970;2024-01-06T03:41:39;4.10;99.90
16515;DHT22;8370;52.556;7.970;2024-01-06T03:44:05;4.10;99.90
16515;DHT22;8370;52.556;7.970;2024-01-06T03:46:30;4.10;99.90
16515;DHT22;8370;52.556;7.970;2024-01-06T03:48:56;4.10;99.90
16515;DHT22;8370;52.556;7.970;2024-01-06T03:51:21;4.00;99.90
16515;DHT22;8370;52.556;7.970;2024-01-06T03:53:47;4.10;99.90
16515;DHT22;8370;52.556;7.970;2024-01-06T03:56:13;4.10;99.90
16515;DHT22;8370;52.556;7.970;2024-01-06T03:58:38;4.10;99.90
16515;DHT22;8370;52.556;7.970;2024-01-06T04:01:04;4.00;99.90
16515;DHT22;8370;52.556;7.970;2024-01-06T04:03:29;4.10;99.90
16515;DHT22;8370;52.556;7.970;2024-01-06T04:05:55;4.00;99.90
16515;DHT22;8370;52.556;7.970;2024-01-06T04:08:20;4.00;99.90
16515;DHT22;8370;52.556;7.970;2024-01-06T04:10:46;4.00;99.90
16515;DHT22;8370;52.556;7.970;2024-01-06T04:13:12;4.00;99.90
16515;DHT22;8370;52.556;7.970;2024-01-06T04:15:37;4.00;99.90
16515;DHT22;8370;52.556;7.970;2024-01-06T04:18:04;4.00;99.90
16515;DHT22;8370;52.556;7.970;2024-01-06T04:20:31;4.00;99.90
16515;DHT22;8370;52.556;7.970;2024-01-06T04:22:57;3.90;99.90
16515;DHT22;8370;52.556;7.970;2024-01-06T04:25:22;3.90;99.90
16515;DHT22;8370;52.556;7.970;2024-01-06T04:27:48;3.90;99.90
16515;DHT22;8370;52.556;7.970;2024-01-06T04:30:14;3.90;99.90
16515;DHT22;8370;52.556;7.970;2024-01-06T04:32:40;3.80;99.90
16515;DHT22;8370;52.556;7.970;2024-01-06T04:35:06;3.90;99.90
16515;DHT22;8370;52.556;7.970;2024-01-06T04:37:31;3.80;99.90
16515;DHT22;8370;52.556;7.970;2024-01-06T04:39:57;3.70;99.90
16515;DHT22;8370;52.556;7.970;2024-01-06T04:42:23;3.70;99.90
16515;DHT22;8370;52.556;7.970;2024-01-06T04:44:49;3.90;99.90
16515;DHT22;8370;52.556;7.970;2024-01-06T04:47:15;3.90;99.90
16515;DHT22;8370;52.556;7.970;2024-01-06T04:49:40;3.90;99.90
16515;DHT22;8370;52.556;7.970;2024-01-06T04:52:06;3.90;99.90
16515;DHT22;8370;52.556;7.970;2024-01-06T04:54:32;3.70;99.90
16515;DHT22;8370;52.556;7.970;2024-01-06T04:56:58;3.70;99.90
16515;DHT22;8370;52.556;7.970;2024-01-06T04:59:24;3.70;99.90
16515;DHT22;8370;52.556;7.970;2024-01-06T05:01:50;3.80;99.90
16515;DHT22;8370;52.556;7.970;2024-01-06T05:04:17;3.70;99.90
16515;DHT22;8370;52.556;7.970;2024-01-06T05:06:43;3.70;99.90
16515;DHT22;8370;52.556;7.970;2024-01-06T05:09:08;3.70;99.90
16515;DHT22;8370;52.556;7.970;2024-01-06T05:11:34;3.80;99.90
16515;DHT22;8370;52.556;7.970;2024-01-06T05:14:00;3.70;99.90
16515;DHT22;8370;52.556;7.970;2024-01-06T05:16:25;3.80;99.90
16515;DHT22;8370;52.556;7.970;2024-01-06T05:18:51;3.80;99.90
16515;DHT22;8370;52.556;7.970;2024-01-06T05:21:17;3.80;99.90
16515;DHT22;8370;52.556;7.970;2024-01-06T05:23:42;3.90;99.90
16515;DHT22;8370;52.556;7.970;2024-01-06T05:26:08;3.70;99.90
16515;DHT22;8370;52.556;7.970;2024-01-06T05:28:34;3.80;99.90
16515;DHT22;8370;52.556;7.970;2024-01-06T05:31:00;3.90;99.90
16515;DHT22;8370;52.556;7.970;2024-01-06T05:33:25;3.70;99.90
16515;DHT22;8370;52.556;7.970;2024-01-06T05:35:50;3.60;99.90
16515;DHT22;8370;52.556;7.970;2024-01-06T05:38:16;3.70;99.90
16515;DHT22;8370;52.556;7.970;2024-01-06T05:40:42;3.60;99.90
16515;DHT22;8370;52.556;7.970;2024-01-06T05:43:08;3.60;99.90
16515;DHT22;8370;52.556;7.970;2024-01-06T05:45:33;3.70;99.90
16515;DHT22;8370;52.556;7.970;2024-01-06T05:47:59;3.60;99.90
16515;DHT22;8370;52.556;7.970;2024-01-06T05:50:24;3.70;99.90
16515;DHT22;8370;52.556;7.970;2024-01-06T05:52:50;3.70;99.90
16515;DHT22;8370;52.556;7.970;2024-01-06T05:55:17;3.60;99.90
16515;DHT22;8370;52.556;7.970;2024-01-06T05:57:42;3.60;99.90
16515;DHT22;8370;52.556;7.970;2024-01-06T06:00:09;3.70;99.90
16515;DHT22;8370;52.556;7.970;2024-01-06T06:02:34;3.70;99.90
16515;DHT22;8370;52.556;7.970;2024-01-06T06:05:00;3.60;99.90
16515;DHT22;8370;52.556;7.970;2024-01-06T06:07:26;3.60;99.90
16515;DHT22;8370;52.556;7.970;2024-01-06T06:09:51;3.70;99.90
16515;DHT22;8370;52.556;7.970;2024-01-06T06:12:18;3.70;99.90
16515;DHT22;8370;52.556;7.970;2024-01-06T06:14:43;3.70;99.90
16515;DHT22;8370;52.556;7.970;2024-01-06T06:17:09;3.70;99.90
16515;DHT22;8370;52.556;7.970;2024-01-06T06:19:34;3.70;99.90
16515;DHT22;8370;52.556;7.970;2024-01-06T06:22:00;3.60;99.90
16515;DHT22;8370;52.556;7.970;2024-01-06T06:24:25;3.60;99.90
16515;DHT22;8370;52.556;7.970;2024-01-06T06:26:51;3.60;99.90
16515;DHT22;8370;52.556;7.970;2024-01-06T06:29:16;3.70;99.90
16515;DHT22;8370;52.556;7.970;2024-01-06T06:31:42;3.60;99.90
16515;DHT22;8370;52.556;7.970;2024-01-06T06:34:12;3.60;99.90
16515;DHT22;8370;52.556;7.970;2024-01-06T06:36:37;3.60;99.90
16515;DHT22;8370;52.556;7.970;2024-01-06T06:39:03;3.60;99.90
16515;DHT22;8370;52.556;7.970;2024-01-06T06:41:29;3.60;99.90
16515;DHT22;8370;52.556;7.970;2024-01-06T06:43:55;3.50;99.90
16515;DHT22;8370;52.556;7.970;2024-01-06T06:46:21;3.50;99.90
16515;DHT22;8370;52.556;7.970;2024-01-06T06:48:46;3.50;99.90
16515;DHT22;8370;52.556;7.970;2024-01-06T06:51:12;3.50;99.90
16515;DHT22;8370;52.556;7.970;2024-01-06T06:53:38;3.50;99.90
16515;DHT22;8370;52.556;7.970;2024-01-06T06:56:03;3.50;99.90
16515;DHT22;8370;52.556;7.970;2024-01-06T06:58:52;3.50;99.90
16515;DHT22;8370;52.556;7.970;2024-01-06T07:01:43;3.50;99.90
16515;DHT22;8370;52.556;7.970;2024-01-06T07:15:17;3.50;99.90
16515;DHT22;8370;52.556;7.970;2024-01-06T07:17:43;3.40;99.90
16515;DHT22;8370;52.556;7.970;2024-01-06T07:20:09;3.60;99.90
16515;DHT22;8370;52.556;7.970;2024-01-06T07:22:35;3.60;99.90
16515;DHT22;8370;52.556;7.970;2024-01-06T07:25:01;3.50;99.90
16515;DHT22;8370;52.556;7.970;2024-01-06T07:27:26;3.50;99.90
16515;DHT22;8370;52.556;7.970;2024-01-06T07:29:52;3.60;99.90
16515;DHT22;8370;52.556;7.970;2024-01-06T07:32:17;3.50;99.90
16515;DHT22;8370;52.556;7.970;2024-01-06T07:34:43;3.50;99.90
16515;DHT22;8370;52.556;7.970;2024-01-06T07:37:09;3.40;99.90
16515;DHT22;8370;52.556;7.970;2024-01-06T07:39:40;3.40;99.90
16515;DHT22;8370;52.556;7.970;2024-01-06T07:42:14;3.50;99.90
16515;DHT22;8370;52.556;7.970;2024-01-06T07:45:07;3.40;99.90
16515;DHT22;8370;52.556;7.970;2024-01-06T07:48:13;3.40;99.90
16515;DHT22;8370;52.556;7.970;2024-01-06T07:51:56;3.30;99.90
16515;DHT22;8370;52.556;7.970;2024-01-06T07:55:19;3.30;99.90
16515;DHT22;8370;52.556;7.970;2024-01-06T07:58:57;3.30;99.90
16515;DHT22;8370;52.556;7.970;2024-01-06T08:01:28;3.30;99.90
16515;DHT22;8370;52.556;7.970;2024-01-06T08:04:05;3.20;99.90
16515;DHT22;8370;52.556;7.970;2024-01-06T08:06:48;3.20;99.90
16515;DHT22;8370;52.556;7.970;2024-01-06T08:13:28;3.20;99.90
16515;DHT22;8370;52.556;7.970;2024-01-06T08:16:57;3.20;99.90
16515;DHT22;8370;52.556;7.970;2024-01-06T08:20:25;3.20;99.90
16515;DHT22;8370;52.556;7.970;2024-01-06T08:27:57;3.30;99.90
16515;DHT22;8370;52.556;7.970;2024-01-06T08:35:34;3.20;99.90
16515;DHT22;8370;52.556;7.970;2024-01-06T08:44:53;3.30;99.90
16515;DHT22;8370;52.556;7.970;2024-01-06T08:47:18;3.20;99.90
16515;DHT22;8370;52.556;7.970;2024-01-06T08:49:44;3.30;99.90
16515;DHT22;8370;52.556;7.970;2024-01-06T08:52:09;3.20;99.90
16515;DHT22;8370;52.556;7.970;2024-01-06T08:54:35;3.20;99.90
16515;DHT22;8370;52.556;7.970;2024-01-06T08:57:00;3.20;99.90
16515;DHT22;8370;52.556;7.970;2024-01-06T08:59:27;3.20;99.90
16515;DHT22;8370;52.556;7.970;2024-01-06T09:01:52;3.20;99.90
16515;DHT22;8370;52.556;7.970;2024-01-06T09:04:22;3.20;99.90
16515;DHT22;8370;52.556;7.970;2024-01-06T09:06:47;3.20;99.90
16515;DHT22;8370;52.556;7.970;2024-01-06T09:09:13;3.30;99.90
16515;DHT22;8370;52.556;7.970;2024-01-06T09:11:39;3.30;99.90
16515;DHT22;8370;52.556;7.970;2024-01-06T09:14:04;3.30;99.90
16515;DHT22;8370;52.556;7.970;2024-01-06T09:16:30;3.30;99.90
16515;DHT22;8370;52.556;7.970;2024-01-06T09:18:55;3.20;99.90
16515;DHT22;8370;52.556;7.970;2024-01-06T09:21:21;3.20;99.90
16515;DHT22;8370;52.556;7.970;2024-01-06T09:23:46;3.30;99.90
16515;DHT22;8370;52.556;7.970;2024-01-06T09:26:12;3.30;99.90
16515;DHT22;8370;52.556;7.970;2024-01-06T09:28:37;3.30;99.90
16515;DHT22;8370;52.556;7.970;2024-01-06T09:31:03;3.20;99.90
16515;DHT22;8370;52.556;7.970;2024-01-06T09:33:29;3.20;99.90
16515;DHT22;8370;52.556;7.970;2024-01-06T09:35:55;3.30;99.90
16515;DHT22;8370;52.556;7.970;2024-01-06T09:38:21;3.30;99.90
16515;DHT22;8370;52.556;7.970;2024-01-06T09:40:47;3.30;99.90
16515;DHT22;8370;52.556;7.970;2024-01-06T09:43:13;3.30;99.90
16515;DHT22;8370;52.556;7.970;2024-01-06T09:45:39;3.30;99.90
16515;DHT22;8370;52.556;7.970;2024-01-06T09:48:12;3.30;99.90
16515;DHT22;8370;52.556;7.970;2024-01-06T09:50:42;3.30;99.90
16515;DHT22;8370;52.556;7.970;2024-01-06T09:53:10;3.30;99.90
16515;DHT22;8370;52.556;7.970;2024-01-06T09:55:37;3.30;99.90
16515;DHT22;8370;52.556;7.970;2024-01-06T09:58:02;3.20;99.90
16515;DHT22;8370;52.556;7.970;2024-01-06T10:00:28;3.30;99.90
16515;DHT22;8370;52.556;7.970;2024-01-06T10:02:54;3.20;99.90
16515;DHT22;8370;52.556;7.970;2024-01-06T10:05:20;3.20;99.90
16515;DHT22;8370;52.556;7.970;2024-01-06T10:07:47;3.20;99.90
16515;DHT22;8370;52.556;7.970;2024-01-06T10:10:13;3.20;99.90
16515;DHT22;8370;52.556;7.970;2024-01-06T10:12:40;3.20;99.90
16515;DHT22;8370;52.556;7.970;2024-01-06T10:15:07;3.30;99.90
16515;DHT22;8370;52.556;7.970;2024-01-06T10:17:36;3.20;99.90
16515;DHT22;8370;52.556;7.970;2024-01-06T10:20:02;3.20;99.90
16515;DHT22;8370;52.556;7.970;2024-01-06T10:22:28;3.20;99.90
16515;DHT22;8370;52.556;7.970;2024-01-06T10:24:55;3.20;99.90
16515;DHT22;8370;52.556;7.970;2024-01-06T10:27:21;3.20;99.90
16515;DHT22;8370;52.556;7.970;2024-01-06T10:29:47;3.10;99.90
16515;DHT22;8370;52.556;7.970;2024-01-06T10:32:12;3.10;99.90
16515;DHT22;8370;52.556;7.970;2024-01-06T10:34:38;3.20;99.90
16515;DHT22;8370;52.556;7.970;2024-01-06T10:37:03;3.20;99.90
16515;DHT22;8370;52.556;7.970;2024-01-06T10:39:31;3.10;99.90
16515;DHT22;8370;52.556;7.970;2024-01-06T10:41:57;3.20;99.90
16515;DHT22;8370;52.556;7.970;2024-01-06T10:44:24;3.20;99.90
16515;DHT22;8370;52.556;7.970;2024-01-06T10:46:49;3.20;99.90
16515;DHT22;8370;52.556;7.970;2024-01-06T10:49:17;3.10;99.90
16515;DHT22;8370;52.556;7.970;2024-01-06T10:51:48;3.10;99.90
16515;DHT22;8370;52.556;7.970;2024-01-06T10:54:14;3.20;99.90
16515;DHT22;8370;52.556;7.970;2024-01-06T10:56:42;3.20;99.90
16515;DHT22;8370;52.556;7.970;2024-01-06T10:59:08;3.10;99.90
16515;DHT22;8370;52.556;7.970;2024-01-06T11:01:35;3.10;99.90
16515;DHT22;8370;52.556;7.970;2024-01-06T11:04:02;3.10;99.90
16515;DHT22;8370;52.556;7.970;2024-01-06T11:06:33;3.20;99.90
16515;DHT22;8370;52.556;7.970;2024-01-06T11:09:09;3.20;99.90
16515;DHT22;8370;52.556;7.970;2024-01-06T11:11:36;3.20;99.90
16515;DHT22;8370;52.556;7.970;2024-01-06T11:14:38;3.20;99.90
16515;DHT22;8370;52.556;7.970;2024-01-06T11:17:04;3.20;99.90
16515;DHT22;8370;52.556;7.970;2024-01-06T11:24:55;3.10;99.90
16515;DHT22;8370;52.556;7.970;2024-01-06T11:27:24;3.10;99.90
16515;DHT22;8370;52.556;7.970;2024-01-06T11:29:54;3.10;99.90
16515;DHT22;8370;52.556;7.970;2024-01-06T11:32:27;3.10;99.90
16515;DHT22;8370;52.556;7.970;2024-01-06T11:34:54;3.00;99.90
16515;DHT22;8370;52.556;7.970;2024-01-06T11:40:08;3.00;99.90
16515;DHT22;8370;52.556;7.970;2024-01-06T11:42:34;2.90;99.90
16515;DHT22;8370;52.556;7.970;2024-01-06T11:45:04;3.00;99.90
16515;DHT22;8370;52.556;7.970;2024-01-06T11:47:33;3.00;99.90
16515;DHT22;8370;52.556;7.970;2024-01-06T11:50:00;3.00;99.90
16515;DHT22;8370;52.556;7.970;2024-01-06T11:52:28;2.90;99.90
16515;DHT22;8370;52.556;7.970;2024-01-06T11:54:55;2.90;99.90
16515;DHT22;8370;52.556;7.970;2024-01-06T11:57:21;3.00;99.90
16515;DHT22;8370;52.556;7.970;2024-01-06T11:59:47;2.90;99.90
16515;DHT22;8370;52.556;7.970;2024-01-06T12:02:13;3.00;99.90
16515;DHT22;8370;52.556;7.970;2024-01-06T12:04:39;3.00;99.90
16515;DHT22;8370;52.556;7.970;2024-01-06T12:07:08;3.00;99.90
16515;DHT22;8370;52.556;7.970;2024-01-06T12:09:34;3.00;99.90
16515;DHT22;8370;52.556;7.970;2024-01-06T12:12:05;3.00;99.90
16515;DHT22;8370;52.556;7.970;2024-01-06T12:14:31;3.00;99.90
16515;DHT22;8370;52.556;7.970;2024-01-06T12:17:01;2.90;99.90
16515;DHT22;8370;52.556;7.970;2024-01-06T12:19:32;2.90;99.90
16515;DHT22;8370;52.556;7.970;2024-01-06T12:21:58;2.90;99.90
16515;DHT22;8370;52.556;7.970;2024-01-06T12:24:26;2.90;99.90
16515;DHT22;8370;52.556;7.970;2024-01-06T12:26:52;2.90;99.90
16515;DHT22;8370;52.556;7.970;2024-01-06T12:29:18;3.00;99.90
16515;DHT22;8370;52.556;7.970;2024-01-06T12:31:46;3.00;99.90
16515;DHT22;8370;52.556;7.970;2024-01-06T12:34:12;2.90;99.90
16515;DHT22;8370;52.556;7.970;2024-01-06T12:36:38;2.90;99.90
16515;DHT22;8370;52.556;7.970;2024-01-06T12:39:05;2.90;99.90
16515;DHT22;8370;52.556;7.970;2024-01-06T12:41:31;2.90;99.90
16515;DHT22;8370;52.556;7.970;2024-01-06T12:44:00;2.90;99.90
16515;DHT22;8370;52.556;7.970;2024-01-06T12:46:26;2.90;99.90
16515;DHT22;8370;52.556;7.970;2024-01-06T12:48:52;2.90;99.90
16515;DHT22;8370;52.556;7.970;2024-01-06T12:51:17;2.80;99.90
16515;DHT22;8370;52.556;7.970;2024-01-06T12:53:43;2.90;99.90
16515;DHT22;8370;52.556;7.970;2024-01-06T12:56:08;2.90;99.90
16515;DHT22;8370;52.556;7.970;2024-01-06T12:58:34;2.80;99.90
16515;DHT22;8370;52.556;7.970;2024-01-06T13:00:59;2.90;99.90
16515;DHT22;8370;52.556;7.970;2024-01-06T13:03:25;2.80;99.90
16515;DHT22;8370;52.556;7.970;2024-01-06T13:05:50;2.80;99.90
16515;DHT22;8370;52.556;7.970;2024-01-06T13:08:16;2.80;99.90
16515;DHT22;8370;52.556;7.970;2024-01-06T13:10:42;2.80;99.90
16515;DHT22;8370;52.556;7.970;2024-01-06T13:13:07;2.80;99.90
16515;DHT22;8370;52.556;7.970;2024-01-06T13:15:32;2.80;99.90
16515;DHT22;8370;52.556;7.970;2024-01-06T13:17:58;2.80;99.90
16515;DHT22;8370;52.556;7.970;2024-01-06T13:20:24;2.70;99.90
16515;DHT22;8370;52.556;7.970;2024-01-06T13:22:49;2.70;99.90
16515;DHT22;8370;52.556;7.970;2024-01-06T13:25:17;2.70;99.90
16515;DHT22;8370;52.556;7.970;2024-01-06T13:27:42;2.60;99.90
16515;DHT22;8370;52.556;7.970;2024-01-06T13:30:08;2.60;99.90
16515;DHT22;8370;52.556;7.970;2024-01-06T13:32:33;2.60;99.90
16515;DHT22;8370;52.556;7.970;2024-01-06T13:34:59;2.60;99.90
16515;DHT22;8370;52.556;7.970;2024-01-06T13:37:31;2.60;99.90
16515;DHT22;8370;52.556;7.970;2024-01-06T13:39:57;2.70;99.90
16515;DHT22;8370;52.556;7.970;2024-01-06T13:42:22;2.70;99.90
16515;DHT22;8370;52.556;7.970;2024-01-06T13:44:48;2.60;99.90
16515;DHT22;8370;52.556;7.970;2024-01-06T13:47:14;2.60;99.90
16515;DHT22;8370;52.556;7.970;2024-01-06T13:49:39;2.50;99.90
16515;DHT22;8370;52.556;7.970;2024-01-06T13:52:05;2.50;99.90
16515;DHT22;8370;52.556;7.970;2024-01-06T13:54:33;2.50;99.90
16515;DHT22;8370;52.556;7.970;2024-01-06T13:56:59;2.50;99.90
16515;DHT22;8370;52.556;7.970;2024-01-06T13:59:24;2.50;99.90
16515;DHT22;8370;52.556;7.970;2024-01-06T14:01:50;2.50;99.90
16515;DHT22;8370;52.556;7.970;2024-01-06T14:04:16;2.60;99.90
16515;DHT22;8370;52.556;7.970;2024-01-06T14:06:42;2.50;99.90
16515;DHT22;8370;52.556;7.970;2024-01-06T14:09:08;2.50;99.90
16515;DHT22;8370;52.556;7.970;2024-01-06T14:11:34;2.60;99.90
16515;DHT22;8370;52.556;7.970;2024-01-06T14:13:59;2.50;99.90
16515;DHT22;8370;52.556;7.970;2024-01-06T14:16:26;2.50;99.90
16515;DHT22;8370;52.556;7.970;2024-01-06T14:18:51;2.50;99.90
16515;DHT22;8370;52.556;7.970;2024-01-06T14:21:18;2.50;99.90
16515;DHT22;8370;52.556;7.970;2024-01-06T14:23:47;2.50;99.90
16515;DHT22;8370;52.556;7.970;2024-01-06T14:26:15;2.50;99.90
16515;DHT22;8370;52.556;7.970;2024-01-06T14:28:42;2.50;99.90
16515;DHT22;8370;52.556;7.970;2024-01-06T14:31:07;2.40;99.90
16515;DHT22;8370;52.556;7.970;2024-01-06T14:33:35;2.40;99.90
16515;DHT22;8370;52.556;7.970;2024-01-06T14:36:01;2.40;99.90
16515;DHT22;8370;52.556;7.970;2024-01-06T14:38:27;2.40;99.90
16515;DHT22;8370;52.556;7.970;2024-01-06T14:40:52;2.50;99.90
16515;DHT22;8370;52.556;7.970;2024-01-06T14:43:18;2.40;99.90
16515;DHT22;8370;52.556;7.970;2024-01-06T14:45:44;2.40;99.90
16515;DHT22;8370;52.556;7.970;2024-01-06T14:48:09;2.40;99.90
16515;DHT22;8370;52.556;7.970;2024-01-06T14:50:35;2.30;99.90
16515;DHT22;8370;52.556;7.970;2024-01-06T14:53:01;2.30;99.90
16515;DHT22;8370;52.556;7.970;2024-01-06T14:55:27;2.20;99.90
16515;DHT22;8370;52.556;7.970;2024-01-06T14:57:52;2.20;99.90
16515;DHT22;8370;52.556;7.970;2024-01-06T15:00:18;2.10;99.90
16515;DHT22;8370;52.556;7.970;2024-01-06T15:02:43;2.20;99.90
16515;DHT22;8370;52.556;7.970;2024-01-06T15:05:11;2.10;99.90
16515;DHT22;8370;52.556;7.970;2024-01-06T15:07:37;2.10;99.90
16515;DHT22;8370;52.556;7.970;2024-01-06T15:10:03;2.20;99.90
16515;DHT22;8370;52.556;7.970;2024-01-06T15:12:29;2.20;99.90
16515;DHT22;8370;52.556;7.970;2024-01-06T15:14:54;2.10;99.90
16515;DHT22;8370;52.556;7.970;2024-01-06T15:17:20;2.20;99.90
16515;DHT22;8370;52.556;7.970;2024-01-06T15:19:46;2.20;99.90
16515;DHT22;8370;52.556;7.970;2024-01-06T15:22:12;2.20;99.90
16515;DHT22;8370;52.556;7.970;2024-01-06T15:24:38;2.20;99.90
16515;DHT22;8370;52.556;7.970;2024-01-06T15:27:04;2.20;99.90
16515;DHT22;8370;52.556;7.970;2024-01-06T15:29:29;2.10;99.90
16515;DHT22;8370;52.556;7.970;2024-01-06T15:31:55;2.20;99.90
16515;DHT22;8370;52.556;7.970;2024-01-06T15:34:24;2.20;99.90
16515;DHT22;8370;52.556;7.970;2024-01-06T15:36:50;2.20;99.90
16515;DHT22;8370;52.556;7.970;2024-01-06T15:39:16;2.10;99.90
16515;DHT22;8370;52.556;7.970;2024-01-06T15:41:42;2.10;99.90
16515;DHT22;8370;52.556;7.970;2024-01-06T15:44:07;2.10;99.90
16515;DHT22;8370;52.556;7.970;2024-01-06T15:46:33;2.00;99.90
16515;DHT22;8370;52.556;7.970;2024-01-06T15:48:58;2.00;99.90
16515;DHT22;8370;52.556;7.970;2024-01-06T15:51:24;2.00;99.90
16515;DHT22;8370;52.556;7.970;2024-01-06T15:53:50;2.00;99.90
16515;DHT22;8370;52.556;7.970;2024-01-06T15:56:16;2.00;99.90
16515;DHT22;8370;52.556;7.970;2024-01-06T15:58:41;2.00;99.90
16515;DHT22;8370;52.556;7.970;2024-01-06T16:01:07;2.00;99.90
16515;DHT22;8370;52.556;7.970;2024-01-06T16:03:32;2.00;99.90
16515;DHT22;8370;52.556;7.970;2024-01-06T16:05:58;2.00;99.90
16515;DHT22;8370;52.556;7.970;2024-01-06T16:08:24;2.00;99.90
16515;DHT22;8370;52.556;7.970;2024-01-06T16:10:49;2.00;99.90
16515;DHT22;8370;52.556;7.970;2024-01-06T16:13:15;2.00;99.90
16515;DHT22;8370;52.556;7.970;2024-01-06T16:15:41;2.00;99.90
16515;DHT22;8370;52.556;7.970;2024-01-06T16:18:07;1.90;99.90
16515;DHT22;8370;52.556;7.970;2024-01-06T16:20:33;2.00;99.90
16515;DHT22;8370;52.556;7.970;2024-01-06T16:22:58;2.00;99.90
16515;DHT22;8370;52.556;7.970;2024-01-06T16:25:24;1.90;99.90
16515;DHT22;8370;52.556;7.970;2024-01-06T16:27:50;1.90;99.90
16515;DHT22;8370;52.556;7.970;2024-01-06T16:30:16;1.80;99.90
16515;DHT22;8370;52.556;7.970;2024-01-06T16:32:41;1.80;99.90
16515;DHT22;8370;52.556;7.970;2024-01-06T16:35:07;1.90;99.90
16515;DHT22;8370;52.556;7.970;2024-01-06T16:37:33;2.00;99.90
16515;DHT22;8370;52.556;7.970;2024-01-06T16:39:59;2.00;99.90
16515;DHT22;8370;52.556;7.970;2024-01-06T16:42:24;2.00;99.90